Time;durP1;ratioP1;P1;durP2;ratioP2;P2;SDS_P1;SDS_P2;PMS_P1;PMS_P2;Temp;Humidity;BMP_temperature;BMP_pressure;BME280_temperature;BME280_humidity;BME280_pressure;Samples;Min_cycle;Max_cycle;Signal;HPM_P1;HPM_P2
2022/12/25 00:01:49;;;;;;;4.38;1.58;;;8.10;99.90;;;;;;5069927;28;20069;-65
2022/12/25 00:04:15;;;;;;;5.10;2.03;;;8.20;99.90;;;;;;5069395;28;20572;-65
2022/12/25 00:06:41;;;;;;;4.75;2.03;;;8.20;99.90;;;;;;5071929;28;20111;-66
2022/12/25 00:09:06;;;;;;;4.35;2.05;;;8.20;99.90;;;;;;5070456;28;20040;-66
2022/12/25 00:11:32;;;;;;;8.20;1.90;;;8.20;99.90;;;;;;5072125;28;20106;-65
2022/12/25 00:13:57;;;;;;;7.10;2.03;;;8.20;99.90;;;;;;5069870;28;20033;-66
2022/12/25 00:16:25;;;;;;;4.47;1.92;;;8.20;99.90;;;;;;5069894;28;20044;-65
2022/12/25 00:18:51;;;;;;;5.28;1.98;;;8.30;99.90;;;;;;5060885;28;20036;-65
2022/12/25 00:21:18;;;;;;;4.25;1.83;;;8.30;99.90;;;;;;5070930;28;20028;-65
2022/12/25 00:23:44;;;;;;;8.07;2.28;;;8.30;99.90;;;;;;5070004;28;20048;-65
2022/12/25 00:26:12;;;;;;;3.15;1.90;;;8.40;99.90;;;;;;5070730;28;20036;-65
2022/12/25 00:28:38;;;;;;;9.02;3.25;;;8.40;99.90;;;;;;5070459;28;20103;-65
2022/12/25 00:31:10;;;;;;;5.50;3.58;;;8.40;99.90;;;;;;5070704;28;20103;-65
2022/12/25 00:33:37;;;;;;;5.40;2.35;;;8.30;99.90;;;;;;5067221;28;20031;-65
2022/12/25 00:36:05;;;;;;;6.78;2.33;;;8.30;99.90;;;;;;5070059;28;20029;-65
2022/12/25 00:38:32;;;;;;;6.82;2.88;;;8.30;99.90;;;;;;5071277;28;20028;-65
2022/12/25 00:40:57;;;;;;;5.45;2.53;;;8.30;99.90;;;;;;5070575;28;20527;-66
2022/12/25 00:43:23;;;;;;;5.05;2.63;;;8.30;99.90;;;;;;5070733;28;20115;-65
2022/12/25 00:45:57;;;;;;;6.18;2.90;;;8.30;99.90;;;;;;5071386;28;20511;-65
2022/12/25 00:48:24;;;;;;;7.18;2.75;;;8.30;99.90;;;;;;5064614;28;20533;-65
2022/12/25 00:50:54;;;;;;;6.38;2.65;;;8.30;99.90;;;;;;5066053;28;20051;-65
2022/12/25 00:53:20;;;;;;;5.60;2.83;;;8.30;99.90;;;;;;5064239;28;20477;-65
2022/12/25 00:55:51;;;;;;;6.45;2.80;;;8.30;99.90;;;;;;5071335;28;20068;-65
2022/12/25 00:58:16;;;;;;;10.50;3.13;;;8.30;99.90;;;;;;5069033;28;20060;-65
2022/12/25 01:00:42;;;;;;;8.25;2.92;;;8.30;99.90;;;;;;5070990;28;20052;-65
2022/12/25 01:03:08;;;;;;;6.13;3.05;;;8.30;99.90;;;;;;5067856;28;20082;-65
2022/12/25 01:05:33;;;;;;;6.53;3.20;;;8.30;99.90;;;;;;5070668;28;20028;-65
2022/12/25 01:07:59;;;;;;;5.03;2.97;;;8.30;99.90;;;;;;5064408;28;20029;-65
2022/12/25 01:10:24;;;;;;;8.02;3.00;;;8.30;99.90;;;;;;5070289;28;20048;-65
2022/12/25 01:12:51;;;;;;;9.00;3.40;;;8.30;99.90;;;;;;5069842;28;20826;-65
2022/12/25 01:15:17;;;;;;;7.53;2.97;;;8.30;99.90;;;;;;5069931;28;20194;-65
2022/12/25 01:17:43;;;;;;;8.63;3.13;;;8.30;99.90;;;;;;5070027;28;20103;-65
2022/12/25 01:20:11;;;;;;;5.28;2.97;;;8.40;99.90;;;;;;5051532;28;20092;-65
2022/12/25 01:22:37;;;;;;;6.78;3.20;;;8.40;99.90;;;;;;5069457;28;20056;-65
2022/12/25 01:25:04;;;;;;;5.40;3.03;;;8.30;99.90;;;;;;5067603;28;20103;-65
2022/12/25 01:27:31;;;;;;;6.82;2.97;;;8.30;99.90;;;;;;5070081;28;20108;-65
2022/12/25 01:29:57;;;;;;;5.10;2.60;;;8.40;99.90;;;;;;5070222;28;20040;-66
2022/12/25 01:32:23;;;;;;;6.32;3.05;;;8.40;99.90;;;;;;5069828;28;20017;-65
2022/12/25 01:34:48;;;;;;;11.98;5.05;;;8.40;99.90;;;;;;5065542;28;20056;-65
2022/12/25 01:37:14;;;;;;;11.70;5.43;;;8.50;99.90;;;;;;5073946;28;20123;-65
2022/12/25 01:39:39;;;;;;;11.50;5.97;;;8.50;99.90;;;;;;5070098;28;20024;-65
2022/12/25 01:42:05;;;;;;;9.10;5.82;;;8.50;99.90;;;;;;5064615;28;20474;-65
2022/12/25 01:44:36;;;;;;;14.98;5.80;;;8.50;99.90;;;;;;5070012;28;20036;-65
2022/12/25 01:47:04;;;;;;;10.80;5.80;;;8.50;99.90;;;;;;5069151;28;20467;-65
2022/12/25 01:49:32;;;;;;;12.50;5.90;;;8.50;99.90;;;;;;5069973;28;20113;-65
2022/12/25 01:52:35;;;;;;;10.80;5.55;;;8.40;99.90;;;;;;5069806;28;20361;-66
2022/12/25 01:55:02;;;;;;;8.13;5.60;;;8.30;99.90;;;;;;5007512;28;20104;-65
2022/12/25 01:57:31;;;;;;;7.75;5.13;;;8.30;99.90;;;;;;5054017;28;20036;-65
2022/12/25 01:59:59;;;;;;;13.38;5.95;;;8.20;99.90;;;;;;5063845;28;20029;-65
2022/12/25 02:02:25;;;;;;;11.07;5.60;;;8.20;99.90;;;;;;5051606;28;20027;-65
2022/12/25 02:05:03;;;;;;;12.68;6.03;;;8.20;99.90;;;;;;5069207;28;20071;-65
2022/12/25 02:07:32;;;;;;;7.95;5.22;;;8.10;99.90;;;;;;5069857;28;20028;-65
2022/12/25 02:09:58;;;;;;;7.70;4.63;;;8.10;99.90;;;;;;5069150;28;20127;-66
2022/12/25 02:12:30;;;;;;;13.07;4.93;;;8.10;99.90;;;;;;5069645;28;20095;-65
2022/12/25 02:15:02;;;;;;;8.18;5.03;;;8.10;99.90;;;;;;5069801;28;20033;-65
2022/12/25 02:17:40;;;;;;;7.88;5.40;;;8.10;99.90;;;;;;5062771;28;20032;-65
2022/12/25 02:20:42;;;;;;;7.93;4.55;;;8.10;99.90;;;;;;5069287;28;20021;-65
2022/12/25 02:23:26;;;;;;;7.82;3.95;;;8.00;99.90;;;;;;5071126;28;20044;-65
2022/12/25 02:26:24;;;;;;;9.15;4.70;;;8.00;99.90;;;;;;5070099;28;20036;-65
2022/12/25 02:29:09;;;;;;;7.95;4.60;;;8.00;99.90;;;;;;5066723;28;20571;-65
2022/12/25 02:31:48;;;;;;;9.00;4.82;;;8.00;99.90;;;;;;5073913;28;20078;-65
2022/12/25 02:34:19;;;;;;;8.25;4.55;;;8.00;99.90;;;;;;5059291;28;20050;-65
2022/12/25 02:37:08;;;;;;;8.45;5.03;;;8.00;99.90;;;;;;5074210;28;20488;-65
2022/12/25 02:40:05;;;;;;;12.32;4.97;;;8.00;99.90;;;;;;5067422;28;20215;-65
2022/12/25 03:07:43;;;;;;;6.97;4.50;;;8.00;99.90;;;;;;5059858;28;20040;-65
2022/12/25 03:13:11;;;;;;;6.13;3.80;;;8.00;99.90;;;;;;5072059;28;20063;-66
2022/12/25 03:18:24;;;;;;;8.02;4.90;;;8.00;99.90;;;;;;5058978;28;20531;-65
2022/12/25 03:29:09;;;;;;;6.93;4.35;;;8.00;99.90;;;;;;5067720;28;20032;-66
2022/12/25 03:31:55;;;;;;;7.20;3.50;;;8.00;99.90;;;;;;5071190;28;20021;-65
2022/12/25 04:36:33;;;;;;;7.18;3.08;;;7.90;99.90;;;;;;5071913;28;20050;-66
2022/12/25 04:38:59;;;;;;;3.45;2.40;;;7.90;99.90;;;;;;5069749;28;20029;-67
2022/12/25 04:41:25;;;;;;;4.10;2.80;;;7.90;99.90;;;;;;5071400;28;20100;-66
2022/12/25 04:43:50;;;;;;;4.28;2.25;;;7.90;99.90;;;;;;5070435;28;20169;-66
2022/12/25 04:46:16;;;;;;;4.80;2.40;;;8.00;99.90;;;;;;5069956;28;20056;-66
2022/12/25 04:48:41;;;;;;;5.60;3.10;;;8.00;99.90;;;;;;5066412;28;20032;-66
2022/12/25 04:51:16;;;;;;;4.65;2.53;;;8.00;99.90;;;;;;5060944;28;20355;-66
2022/12/25 04:53:42;;;;;;;5.72;2.55;;;8.00;99.90;;;;;;5065357;28;20033;-66
2022/12/25 04:56:08;;;;;;;3.97;2.70;;;8.00;99.90;;;;;;5069042;28;20028;-66
2022/12/25 04:58:33;;;;;;;5.93;3.00;;;8.00;99.90;;;;;;5069903;28;20078;-66
2022/12/25 05:01:00;;;;;;;3.92;2.63;;;8.00;99.90;;;;;;5070557;28;20090;-66
2022/12/25 05:03:26;;;;;;;2.50;2.00;;;8.00;99.90;;;;;;5067437;28;20054;-66
2022/12/25 05:05:52;;;;;;;2.35;2.15;;;8.00;99.90;;;;;;5065531;28;20025;-66
2022/12/25 05:08:17;;;;;;;2.25;1.90;;;8.00;99.90;;;;;;5050949;28;20016;-66
2022/12/25 05:10:43;;;;;;;4.03;2.13;;;8.10;99.90;;;;;;5070984;28;20052;-65
2022/12/25 05:13:09;;;;;;;3.50;2.72;;;8.10;99.90;;;;;;5069523;28;20465;-66
2022/12/25 05:15:37;;;;;;;4.28;2.38;;;8.10;99.90;;;;;;5070939;28;20017;-66
2022/12/25 05:18:03;;;;;;;2.70;1.90;;;8.10;99.90;;;;;;5069246;28;20025;-66
2022/12/25 05:20:29;;;;;;;4.28;2.05;;;8.10;99.90;;;;;;5070506;28;20025;-66
2022/12/25 05:22:54;;;;;;;2.65;1.70;;;8.10;99.90;;;;;;5068972;28;20496;-66
2022/12/25 05:25:20;;;;;;;3.20;1.98;;;8.10;99.90;;;;;;5069869;28;20041;-65
2022/12/25 05:27:45;;;;;;;4.30;2.47;;;8.10;99.90;;;;;;5069901;28;20028;-65
2022/12/25 05:30:11;;;;;;;2.60;2.30;;;8.10;99.90;;;;;;5069898;28;20029;-65
2022/12/25 05:32:37;;;;;;;3.85;2.10;;;8.10;99.90;;;;;;5069910;28;20166;-66
2022/12/25 05:35:03;;;;;;;2.22;1.95;;;8.00;99.90;;;;;;5067185;28;20029;-66
2022/12/25 05:37:28;;;;;;;3.10;1.63;;;8.10;99.90;;;;;;5071894;28;20028;-65
2022/12/25 05:39:54;;;;;;;2.85;1.48;;;8.10;99.90;;;;;;5069999;28;20035;-65
2022/12/25 05:42:19;;;;;;;3.00;1.90;;;8.10;99.90;;;;;;5069007;28;20136;-66
2022/12/25 05:44:45;;;;;;;2.00;1.50;;;8.10;99.90;;;;;;5070275;28;20040;-66
2022/12/25 05:47:10;;;;;;;1.55;1.35;;;8.20;99.90;;;;;;5070235;28;20043;-64
2022/12/25 05:49:36;;;;;;;2.38;1.85;;;8.20;99.90;;;;;;5069892;28;20513;-65
2022/12/25 05:52:02;;;;;;;4.60;2.50;;;8.20;99.90;;;;;;5069917;28;20109;-65
2022/12/25 05:54:27;;;;;;;5.68;2.90;;;8.20;99.90;;;;;;5065750;28;20036;-65
2022/12/25 05:56:53;;;;;;;7.78;2.85;;;8.10;99.90;;;;;;5065336;28;20555;-65
2022/12/25 05:59:18;;;;;;;5.82;2.40;;;8.10;99.90;;;;;;5067196;28;20088;-65
2022/12/25 06:01:45;;;;;;;2.55;2.08;;;8.10;99.90;;;;;;5071040;28;20074;-65
2022/12/25 06:04:10;;;;;;;5.03;2.60;;;8.10;99.90;;;;;;5066504;28;20490;-65
2022/12/25 06:06:36;;;;;;;3.80;2.28;;;8.10;99.90;;;;;;5068931;28;20104;-66
2022/12/25 06:09:02;;;;;;;6.22;2.95;;;8.10;99.90;;;;;;5066120;28;20056;-66
2022/12/25 06:11:27;;;;;;;5.57;2.30;;;8.00;99.90;;;;;;5074781;28;20032;-67
2022/12/25 06:13:53;;;;;;;3.10;2.17;;;8.10;99.90;;;;;;5066760;28;20108;-66
2022/12/25 06:16:19;;;;;;;4.45;2.83;;;8.10;99.90;;;;;;5071899;28;20045;-66
2022/12/25 06:18:48;;;;;;;6.18;3.38;;;8.10;99.90;;;;;;5070715;28;20472;-66
2022/12/25 06:21:15;;;;;;;5.07;3.08;;;8.10;99.90;;;;;;5072271;28;20082;-67
2022/12/25 06:23:41;;;;;;;5.05;2.72;;;8.10;99.90;;;;;;5066827;28;20049;-67
2022/12/25 06:26:09;;;;;;;4.53;3.08;;;8.00;99.90;;;;;;5072391;28;20032;-66
2022/12/25 06:28:35;;;;;;;4.90;3.13;;;8.00;99.90;;;;;;5071179;28;20458;-67
2022/12/25 06:31:09;;;;;;;6.40;2.90;;;8.00;99.90;;;;;;5070637;28;20112;-67
2022/12/25 06:33:36;;;;;;;5.60;2.80;;;8.00;99.90;;;;;;5059476;28;20033;-66
2022/12/25 06:36:07;;;;;;;4.60;2.75;;;8.00;99.90;;;;;;5070293;28;20120;-67
2022/12/25 06:38:32;;;;;;;5.22;3.00;;;8.00;99.90;;;;;;5070398;28;20029;-67
2022/12/25 06:41:09;;;;;;;2.22;1.92;;;8.00;99.90;;;;;;5070794;28;20033;-66
2022/12/25 06:43:36;;;;;;;3.22;2.17;;;7.90;99.90;;;;;;5071314;28;20028;-66
2022/12/25 06:46:03;;;;;;;2.17;1.98;;;7.90;99.90;;;;;;5071455;28;20020;-67
2022/12/25 06:48:29;;;;;;;3.17;2.00;;;7.90;99.90;;;;;;5056335;28;20021;-67
2022/12/25 06:50:54;;;;;;;2.97;2.20;;;7.90;99.90;;;;;;5072098;28;20039;-66
2022/12/25 06:53:20;;;;;;;4.18;2.30;;;7.90;99.90;;;;;;5053254;28;20676;-67
2022/12/25 06:55:46;;;;;;;4.03;2.75;;;7.90;99.90;;;;;;5068356;28;20028;-66
2022/12/25 06:58:11;;;;;;;2.67;1.80;;;7.90;99.90;;;;;;5052409;28;20385;-66
2022/12/25 07:00:37;;;;;;;2.95;2.30;;;7.90;99.90;;;;;;5070658;28;20044;-66
2022/12/25 07:03:03;;;;;;;3.45;2.70;;;7.90;99.90;;;;;;5069297;28;20021;-66
2022/12/25 07:05:28;;;;;;;5.55;2.83;;;7.90;99.90;;;;;;5071813;28;20064;-66
2022/12/25 07:07:54;;;;;;;3.78;2.47;;;7.90;99.90;;;;;;5062564;28;20441;-66
2022/12/25 07:10:20;;;;;;;4.03;2.50;;;7.90;99.90;;;;;;5053852;28;20143;-66
2022/12/25 07:12:45;;;;;;;4.05;2.70;;;7.90;99.90;;;;;;5066237;28;20059;-67
2022/12/25 07:15:11;;;;;;;3.70;3.05;;;7.90;99.90;;;;;;5072275;28;20107;-67
2022/12/25 07:17:36;;;;;;;4.55;3.38;;;7.90;99.90;;;;;;5072622;28;20024;-67
2022/12/25 07:20:02;;;;;;;4.35;3.20;;;7.90;99.90;;;;;;5072161;28;20189;-68
2022/12/25 07:22:29;;;;;;;7.20;3.85;;;7.90;99.90;;;;;;5066296;28;20048;-67
2022/12/25 07:24:54;;;;;;;3.85;2.78;;;7.90;99.90;;;;;;5072614;28;20364;-67
2022/12/25 07:27:20;;;;;;;4.82;3.00;;;8.00;99.90;;;;;;5071179;28;20017;-67
2022/12/25 07:29:45;;;;;;;4.65;3.10;;;8.00;99.90;;;;;;5072954;28;20385;-67
2022/12/25 07:32:11;;;;;;;5.70;3.35;;;8.00;99.90;;;;;;5071839;28;20083;-67
2022/12/25 07:34:36;;;;;;;4.05;3.08;;;8.00;99.90;;;;;;5071628;28;20032;-66
2022/12/25 07:37:02;;;;;;;5.68;3.70;;;8.00;99.90;;;;;;5076482;28;20028;-67
2022/12/25 07:39:29;;;;;;;5.43;3.40;;;8.00;99.90;;;;;;5071300;28;20106;-67
2022/12/25 07:41:54;;;;;;;4.55;3.03;;;8.00;99.90;;;;;;5070934;28;20104;-66
2022/12/25 07:44:21;;;;;;;3.92;2.65;;;8.10;99.90;;;;;;5052014;28;20243;-67
2022/12/25 07:46:47;;;;;;;5.85;2.75;;;8.10;99.90;;;;;;5071403;28;20025;-67
2022/12/25 07:49:12;;;;;;;5.22;2.42;;;8.10;99.90;;;;;;5067515;28;20020;-66
2022/12/25 07:51:38;;;;;;;4.35;2.47;;;8.10;99.90;;;;;;5071161;28;20397;-66
2022/12/25 07:54:04;;;;;;;4.45;3.13;;;8.10;99.90;;;;;;5069072;28;20025;-67
2022/12/25 07:56:30;;;;;;;6.20;3.80;;;8.10;99.90;;;;;;5065992;28;20472;-67
2022/12/25 07:58:55;;;;;;;5.55;3.38;;;8.10;99.90;;;;;;5068434;28;20041;-66
2022/12/25 08:01:24;;;;;;;6.05;3.65;;;8.20;99.90;;;;;;5067409;28;20025;-65
2022/12/25 08:03:54;;;;;;;5.35;3.72;;;8.20;99.90;;;;;;5069171;28;20047;-66
2022/12/25 08:06:22;;;;;;;5.47;4.20;;;8.30;99.90;;;;;;5067895;28;20103;-67
2022/12/25 08:08:47;;;;;;;8.30;5.03;;;8.50;99.90;;;;;;5069731;28;20029;-67
2022/12/25 08:11:13;;;;;;;10.68;5.70;;;8.60;99.90;;;;;;5068477;28;20051;-67
2022/12/25 08:13:39;;;;;;;8.73;5.13;;;8.60;99.90;;;;;;5065061;28;20047;-67
2022/12/25 08:16:07;;;;;;;9.68;5.15;;;8.50;99.90;;;;;;5070092;28;20062;-68
2022/12/25 08:18:33;;;;;;;7.57;4.60;;;8.40;99.90;;;;;;5068845;28;20021;-66
2022/12/25 08:21:08;;;;;;;7.55;5.13;;;8.30;99.90;;;;;;5069828;28;20111;-67
2022/12/25 08:23:36;;;;;;;8.27;4.35;;;8.30;99.90;;;;;;5061845;28;20068;-66
2022/12/25 08:26:03;;;;;;;7.32;4.90;;;8.20;99.90;;;;;;5060526;28;20466;-67
2022/12/25 08:28:29;;;;;;;6.72;4.63;;;8.20;99.90;;;;;;5058373;28;20534;-67
2022/12/25 08:30:55;;;;;;;5.75;3.80;;;8.20;99.90;;;;;;5057181;28;20123;-66
2022/12/25 08:33:21;;;;;;;7.43;4.57;;;8.20;99.90;;;;;;5060098;28;20029;-67
2022/12/25 08:35:47;;;;;;;5.85;3.55;;;8.20;99.90;;;;;;5050831;28;20112;-67
2022/12/25 08:38:12;;;;;;;6.10;3.75;;;8.20;99.90;;;;;;5063960;28;20119;-67
2022/12/25 08:40:38;;;;;;;8.00;4.63;;;8.20;99.90;;;;;;5063745;28;21421;-70
2022/12/25 08:43:04;;;;;;;10.15;5.03;;;8.30;99.90;;;;;;5059151;28;20025;-70
2022/12/25 08:45:31;;;;;;;7.55;4.40;;;8.40;99.90;;;;;;5063625;28;20037;-71
2022/12/25 08:47:56;;;;;;;5.47;3.75;;;8.50;99.90;;;;;;5056142;28;20474;-71
2022/12/25 08:50:23;;;;;;;4.63;3.22;;;8.60;99.90;;;;;;5050580;28;20028;-70
2022/12/25 08:52:49;;;;;;;5.80;3.20;;;8.60;99.90;;;;;;5050611;28;20095;-70
2022/12/25 08:55:15;;;;;;;6.03;2.75;;;8.60;99.90;;;;;;5050518;28;20385;-72
2022/12/25 08:57:41;;;;;;;4.25;3.00;;;8.60;99.90;;;;;;5056638;28;20063;-70
2022/12/25 09:00:07;;;;;;;3.95;2.80;;;8.70;99.90;;;;;;5057971;28;20025;-72
2022/12/25 09:02:33;;;;;;;6.82;2.83;;;8.70;99.90;;;;;;5048001;28;20036;-72
2022/12/25 09:04:59;;;;;;;4.47;2.67;;;8.70;99.90;;;;;;5031596;28;20420;-72
2022/12/25 09:07:24;;;;;;;3.80;2.55;;;8.70;99.90;;;;;;5051809;28;20367;-70
2022/12/25 09:09:50;;;;;;;3.22;2.92;;;8.70;99.90;;;;;;5052028;28;20478;-68
2022/12/25 09:12:15;;;;;;;5.25;2.95;;;8.70;99.90;;;;;;5031596;28;20492;-70
2022/12/25 09:14:41;;;;;;;7.43;4.07;;;8.80;99.90;;;;;;5050021;28;20474;-68
2022/12/25 09:17:07;;;;;;;3.72;2.70;;;8.80;99.90;;;;;;5056273;28;20104;-70
2022/12/25 09:19:33;;;;;;;3.67;2.80;;;9.00;99.90;;;;;;5046335;28;20492;-69
2022/12/25 09:21:58;;;;;;;6.18;3.30;;;9.00;99.90;;;;;;5051012;28;20045;-72
2022/12/25 09:24:24;;;;;;;5.32;3.10;;;9.00;99.90;;;;;;5069854;28;20028;-68
2022/12/25 09:26:50;;;;;;;4.22;2.78;;;9.00;99.90;;;;;;5070513;28;20024;-71
2022/12/25 09:29:16;;;;;;;3.42;2.72;;;9.10;99.90;;;;;;5069467;28;20036;-71
2022/12/25 09:31:42;;;;;;;3.47;2.80;;;9.10;99.90;;;;;;5070382;28;20028;-71
2022/12/25 09:34:09;;;;;;;3.85;3.03;;;9.10;99.90;;;;;;5069112;28;20028;-68
2022/12/25 09:36:35;;;;;;;4.72;3.05;;;9.10;99.90;;;;;;5069875;28;20028;-70
2022/12/25 09:39:01;;;;;;;4.47;3.25;;;9.10;99.90;;;;;;5069393;28;20028;-72
2022/12/25 09:41:34;;;;;;;3.85;2.75;;;9.20;99.90;;;;;;5070334;28;20032;-72
2022/12/25 09:44:05;;;;;;;3.08;2.47;;;9.10;99.90;;;;;;5069922;28;20428;-72
2022/12/25 09:46:46;;;;;;;3.88;2.50;;;9.10;99.90;;;;;;5064082;28;20012;-73
2022/12/25 09:49:19;;;;;;;;;;;9.20;99.90;;;;;;5070069;28;20035;-70
2022/12/25 09:51:48;;;;;;;5.05;3.50;;;9.20;99.90;;;;;;5070821;28;20004;-73
2022/12/25 09:54:32;;;;;;;6.00;3.70;;;9.20;99.90;;;;;;5069465;28;20021;-68
2022/12/25 09:56:57;;;;;;;5.85;3.80;;;9.30;99.90;;;;;;5069986;28;20043;-69
2022/12/25 09:59:26;;;;;;;7.03;4.82;;;9.30;99.90;;;;;;5066470;28;20032;-69
2022/12/25 10:02:03;;;;;;;7.90;4.15;;;9.40;99.90;;;;;;5067631;28;20028;-69
2022/12/25 10:04:40;;;;;;;6.72;4.50;;;9.40;99.90;;;;;;5062486;28;20037;-69
2022/12/25 10:07:12;;;;;;;6.20;3.90;;;9.50;99.90;;;;;;5069586;28;20432;-69
2022/12/25 10:10:05;;;;;;;5.53;3.58;;;9.60;99.90;;;;;;5069551;28;20024;-68
2022/12/25 10:12:56;;;;;;;5.78;3.83;;;9.80;99.90;;;;;;5055907;28;20028;-67
2022/12/25 10:15:56;;;;;;;4.32;3.60;;;9.90;99.90;;;;;;5045878;28;20623;-68
2022/12/25 10:18:35;;;;;;;5.85;4.32;;;9.90;99.90;;;;;;5063047;28;20060;-68
2022/12/25 10:21:04;;;;;;;4.68;4.10;;;10.10;99.90;;;;;;5070030;28;20029;-70
2022/12/25 10:23:39;;;;;;;9.00;4.55;;;10.20;99.90;;;;;;5068998;28;20088;-69
2022/12/25 10:26:17;;;;;;;5.10;3.80;;;10.20;99.90;;;;;;5069667;28;20116;-69
2022/12/25 10:28:57;;;;;;;6.60;4.32;;;10.30;99.90;;;;;;5068134;28;20021;-69
2022/12/25 10:31:26;;;;;;;6.88;4.13;;;10.40;99.90;;;;;;5069630;28;20025;-69
2022/12/25 10:33:53;;;;;;;6.05;4.03;;;10.50;99.90;;;;;;5056147;28;20096;-69
2022/12/25 10:36:22;;;;;;;5.05;3.63;;;10.60;99.90;;;;;;5066474;28;20029;-68
2022/12/25 10:38:48;;;;;;;4.90;3.72;;;10.70;99.90;;;;;;5074358;28;20021;-68
2022/12/25 10:41:47;;;;;;;3.58;2.83;;;10.90;99.90;;;;;;5069439;28;20024;-68
2022/12/25 10:44:23;;;;;;;3.15;2.85;;;11.00;99.90;;;;;;5071318;28;20032;-68
2022/12/25 10:46:56;;;;;;;4.18;2.95;;;11.10;99.90;;;;;;5067922;28;20420;-68
2022/12/25 10:49:25;;;;;;;3.58;2.45;;;11.20;99.90;;;;;;5072164;28;20627;-67
2022/12/25 10:51:51;;;;;;;3.83;2.70;;;11.40;99.90;;;;;;5073575;28;20027;-68
2022/12/25 10:54:16;;;;;;;5.38;3.22;;;11.40;99.90;;;;;;5065015;28;20029;-67
2022/12/25 10:57:20;;;;;;;4.82;2.83;;;11.70;99.90;;;;;;5073124;28;20095;-67
2022/12/25 10:59:56;;;;;;;6.00;2.97;;;11.90;99.90;;;;;;5059617;28;20037;-67
2022/12/25 11:02:33;;;;;;;4.38;3.20;;;11.90;99.90;;;;;;5058652;28;20020;-68
2022/12/25 11:05:12;;;;;;;4.95;2.88;;;12.00;99.90;;;;;;5073392;28;20082;-68
2022/12/25 11:07:54;;;;;;;4.70;3.30;;;12.00;99.90;;;;;;5060269;28;20474;-67
2022/12/25 11:10:22;;;;;;;6.72;2.65;;;12.00;99.90;;;;;;5060876;28;20288;-72
2022/12/25 11:12:48;;;;;;;3.88;2.50;;;11.90;99.90;;;;;;5072293;28;20036;-68
2022/12/25 11:15:41;;;;;;;4.45;3.13;;;12.00;99.90;;;;;;5072254;28;20090;-69
2022/12/25 11:18:24;;;;;;;8.23;4.00;;;12.00;99.90;;;;;;5071429;28;20029;-69
2022/12/25 11:20:54;;;;;;;5.68;3.75;;;12.00;99.90;;;;;;5067168;28;20032;-68
2022/12/25 11:23:21;;;;;;;;;;;12.10;99.90;;;;;;5071691;28;20048;-68
2022/12/25 11:26:04;;;;;;;3.53;2.75;;;12.10;99.90;;;;;;5063711;28;19919;-68
2022/12/25 11:28:32;;;;;;;4.82;2.55;;;12.20;99.90;;;;;;5063528;28;20021;-66
2022/12/25 11:31:04;;;;;;;2.63;2.40;;;12.30;99.90;;;;;;5064313;28;20036;-70
2022/12/25 11:33:38;;;;;;;3.97;2.60;;;12.40;99.90;;;;;;5070624;28;20078;-69
2022/12/25 11:36:21;;;;;;;5.20;3.15;;;12.50;99.90;;;;;;5074151;28;20119;-70
2022/12/25 11:38:47;;;;;;;3.13;2.15;;;12.60;99.90;;;;;;5069903;28;20025;-68
2022/12/25 11:41:19;;;;;;;5.85;2.78;;;12.70;99.90;;;;;;5068141;28;20027;-68
2022/12/25 11:43:51;;;;;;;2.80;1.88;;;12.80;99.90;;;;;;5070909;28;20032;-67
2022/12/25 11:46:30;;;;;;;4.45;2.55;;;13.00;99.90;;;;;;5071031;28;20043;-68
2022/12/25 11:49:00;;;;;;;3.92;2.40;;;13.00;99.90;;;;;;5069893;28;20099;-68
2022/12/25 11:51:32;;;;;;;5.75;2.42;;;13.20;99.90;;;;;;5071386;28;20055;-67
2022/12/25 11:54:17;;;;;;;3.33;2.92;;;13.30;99.90;;;;;;5065246;28;20501;-67
2022/12/25 11:56:43;;;;;;;4.30;2.40;;;13.50;99.90;;;;;;5071834;28;20021;-66
2022/12/25 11:59:24;;;;;;;4.70;2.75;;;13.60;99.90;;;;;;5066330;28;20028;-66
2022/12/25 12:02:02;;;;;;;3.53;2.65;;;13.80;99.90;;;;;;5066527;28;20025;-67
2022/12/25 12:04:37;;;;;;;4.10;2.72;;;13.90;99.90;;;;;;5068238;28;20024;-67
2022/12/25 12:07:17;;;;;;;4.85;2.65;;;13.90;99.90;;;;;;5071610;28;20028;-66
2022/12/25 12:09:48;;;;;;;4.20;2.90;;;14.00;99.90;;;;;;5061908;28;20092;-65
2022/12/25 12:12:16;;;;;;;;;;;14.00;99.90;;;;;;5070677;28;20024;-69
2022/12/25 12:14:49;;;;;;;5.00;3.63;;;14.00;99.90;;;;;;5069262;28;19919;-67
2022/12/25 12:17:16;;;;;;;6.20;3.20;;;14.00;99.90;;;;;;5078607;28;20031;-67
2022/12/25 12:19:42;;;;;;;6.80;3.55;;;14.10;99.90;;;;;;5067320;28;20107;-68
2022/12/25 12:22:20;;;;;;;3.78;2.90;;;14.10;99.90;;;;;;5051812;28;20136;-68
2022/12/25 12:24:54;;;;;;;8.52;3.72;;;14.20;99.90;;;;;;5068549;28;20094;-69
2022/12/25 12:27:30;;;;;;;6.85;4.88;;;14.20;99.90;;;;;;5065924;28;20107;-66
2022/12/25 12:29:58;;;;;;;6.57;4.57;;;14.20;99.90;;;;;;5061223;28;20021;-66
2022/12/25 12:32:34;;;;;;;4.60;3.75;;;14.20;99.90;;;;;;5060175;28;20033;-67
2022/12/25 12:35:25;;;;;;;4.72;3.28;;;14.30;99.90;;;;;;5067979;28;20024;-66
2022/12/25 12:38:12;;;;;;;6.25;3.80;;;14.20;99.90;;;;;;5064615;28;20053;-65
2022/12/25 12:40:54;;;;;;;4.60;3.22;;;14.20;99.90;;;;;;5064208;28;20086;-65
2022/12/25 12:43:37;;;;;;;4.00;3.53;;;14.10;99.90;;;;;;5069449;28;20049;-66
2022/12/25 12:46:28;;;;;;;3.78;2.45;;;14.10;99.90;;;;;;5067749;28;20040;-67
2022/12/25 12:49:08;;;;;;;2.40;2.00;;;14.00;99.90;;;;;;5068137;28;20036;-65
2022/12/25 12:51:37;;;;;;;3.70;2.20;;;14.10;99.90;;;;;;5064736;28;20476;-66
2022/12/25 12:54:25;;;;;;;3.28;2.15;;;14.20;99.90;;;;;;5067459;28;20044;-71
2022/12/25 12:57:24;;;;;;;1.80;1.58;;;14.30;99.90;;;;;;5070992;28;20079;-68
2022/12/25 12:59:49;;;;;;;2.70;1.52;;;14.40;99.90;;;;;;5063348;28;20024;-69
2022/12/25 13:03:02;;;;;;;4.05;1.60;;;14.50;99.90;;;;;;5063348;28;20507;-69
2022/12/25 13:05:53;;;;;;;2.85;1.60;;;14.50;99.90;;;;;;5045200;28;20362;-70
2022/12/25 13:08:21;;;;;;;;;;;14.60;99.90;;;;;;5067620;28;20824;-70
2022/12/25 13:11:02;;;;;;;1.73;1.55;;;14.60;99.90;;;;;;5068181;28;19908;-69
2022/12/25 13:13:34;;;;;;;2.65;1.77;;;14.60;99.90;;;;;;5062380;28;20040;-70
2022/12/25 13:16:00;;;;;;;1.83;1.70;;;14.60;99.90;;;;;;5068447;28;20021;-71
2022/12/25 13:18:26;;;;;;;3.83;1.98;;;14.60;99.90;;;;;;5058946;28;20101;-70
2022/12/25 13:20:59;;;;;;;1.65;1.55;;;14.60;99.90;;;;;;5066153;28;20025;-69
2022/12/25 13:23:32;;;;;;;2.50;2.00;;;14.50;99.90;;;;;;5068021;28;20041;-70
2022/12/25 13:26:00;;;;;;;5.22;1.60;;;14.60;99.90;;;;;;5068709;28;20123;-68
2022/12/25 13:28:30;;;;;;;3.10;2.10;;;14.60;99.90;;;;;;5068901;28;20045;-69
2022/12/25 13:31:10;;;;;;;3.42;2.70;;;14.60;99.90;;;;;;5060601;28;20071;-71
2022/12/25 13:33:37;;;;;;;4.65;3.15;;;14.60;99.90;;;;;;5069878;28;20102;-69
2022/12/25 13:36:04;;;;;;;2.53;2.20;;;14.60;99.90;;;;;;5069721;28;20055;-70
2022/12/25 13:38:30;;;;;;;3.25;1.90;;;14.60;99.90;;;;;;5067871;28;20056;-69
2022/12/25 13:43:43;;;;;;;2.38;1.75;;;14.60;99.90;;;;;;5069305;28;20040;-70
2022/12/25 13:46:13;;;;;;;3.50;2.08;;;14.60;99.90;;;;;;5067609;28;20029;-71
2022/12/25 13:48:38;;;;;;;3.20;2.50;;;14.50;99.90;;;;;;5069159;28;20013;-67
2022/12/25 13:51:04;;;;;;;5.40;3.20;;;14.50;99.90;;;;;;5069601;28;20044;-73
2022/12/25 13:53:30;;;;;;;4.82;3.40;;;14.50;99.90;;;;;;5068830;28;20028;-68
2022/12/25 13:55:57;;;;;;;5.03;3.10;;;14.40;99.90;;;;;;5070358;28;20040;-67
2022/12/25 13:58:27;;;;;;;7.00;3.80;;;14.30;99.90;;;;;;5068939;28;20647;-68
2022/12/25 14:00:56;;;;;;;4.28;3.45;;;14.20;99.90;;;;;;5067069;28;20038;-68
2022/12/25 14:03:26;;;;;;;6.22;3.30;;;14.20;99.90;;;;;;5067914;28;20039;-67
2022/12/25 14:06:00;;;;;;;4.60;2.95;;;14.00;99.90;;;;;;5071383;28;20424;-66
2022/12/25 14:08:30;;;;;;;4.82;2.80;;;14.00;99.90;;;;;;5060804;28;20029;-66
2022/12/25 14:10:57;;;;;;;6.50;2.67;;;13.90;99.90;;;;;;5064933;28;20103;-67
2022/12/25 14:13:29;;;;;;;3.35;2.35;;;13.80;99.90;;;;;;5068062;28;20109;-67
2022/12/25 14:15:56;;;;;;;3.90;2.35;;;13.80;99.90;;;;;;5066749;28;20379;-67
2022/12/25 14:18:24;;;;;;;3.50;2.03;;;13.70;99.90;;;;;;5072121;28;20327;-68
2022/12/25 14:21:00;;;;;;;5.45;2.72;;;13.70;99.90;;;;;;5079323;28;20028;-67
2022/12/25 14:23:40;;;;;;;5.50;2.30;;;13.70;99.90;;;;;;5073092;28;20535;-68
2022/12/25 14:26:06;;;;;;;3.42;2.28;;;13.70;99.90;;;;;;5073285;28;20040;-67
2022/12/25 14:28:33;;;;;;;4.13;2.78;;;13.70;99.90;;;;;;5067312;28;20048;-68
2022/12/25 14:31:03;;;;;;;4.10;2.20;;;13.70;99.90;;;;;;5073799;28;20029;-67
2022/12/25 14:33:35;;;;;;;2.60;2.25;;;13.80;99.90;;;;;;5064659;28;20025;-68
2022/12/25 14:36:01;;;;;;;3.15;1.33;;;13.70;99.90;;;;;;5077083;28;20032;-68
2022/12/25 14:38:32;;;;;;;2.25;1.50;;;13.60;99.90;;;;;;5073116;28;20596;-67
2022/12/25 14:41:01;;;;;;;3.40;1.77;;;13.60;99.90;;;;;;5067375;28;20452;-67
2022/12/25 14:43:28;;;;;;;4.18;2.85;;;13.50;99.90;;;;;;5071606;28;20028;-67
2022/12/25 14:45:56;;;;;;;7.90;4.28;;;13.40;99.90;;;;;;5073611;28;20108;-67
2022/12/25 14:48:25;;;;;;;8.95;4.82;;;13.20;99.90;;;;;;5066232;28;20548;-67
2022/12/25 14:50:59;;;;;;;10.75;6.00;;;13.10;99.90;;;;;;5073277;28;20051;-67
2022/12/25 14:53:35;;;;;;;9.13;5.65;;;13.00;99.90;;;;;;5068659;28;20029;-66